Overview Statistics Trail Chart Weather Telemetry Raw packets
 

This is the latest recevied weather packets stored in our database for station/object S51UL-6. If no packets are shown the sender has not sent any weather packets the latest 10 day(s).

<< 44 45 46 47 48 49 50 >>
Time Temp. Humidity Pressure Rain* Wind** Luminosity Snow
1788282692 23.33° C 54% 1020 hPa 6.1 mm - - -
1788282094 23.89° C 53% 1019.9 hPa 12.95 mm - - -
1788281193 24.44° C 53% 1020 hPa 14.48 mm - - -
1788280893 24.44° C 53% 1020 hPa 18.03 mm - - -
1788280595 25° C 53% 1019.8 hPa 23.37 mm - - -
1788279094 25.56° C 51% 1019.9 hPa 28.45 mm - - -
1788278796 25.56° C 51% 1020.1 hPa 30.48 mm - - -
1788278493 25.56° C 51% 1020.1 hPa 30.99 mm - - -
1788278194 25.56° C 51% 1020 hPa 28.96 mm - - -
1788277905 26.11° C 51% 1020 hPa 30.99 mm - - -
1788277294 26.11° C 51% 1020.2 hPa 35.31 mm - - -
1788276994 26.11° C 50% 1020.3 hPa 31.5 mm - - -
1788276094 26.67° C 50% 1020.2 hPa 27.43 mm - - -
1788274594 27.78° C 49% 1020.3 hPa 20.32 mm - - -
1788273994 27.78° C 49% 1020.3 hPa 12.45 mm - - -
1788273395 27.22° C 50% 1020.2 hPa 17.02 mm - - -
1788273094 27.22° C 49% 1020.4 hPa 15.49 mm - - -
1788272794 27.22° C 49% 1020.5 hPa 18.54 mm - - -
1788272194 28.33° C 46% 1020.7 hPa 20.83 mm - - -
1788271598 28.89° C 46% 1020.7 hPa 20.32 mm - - -
1788270995 28.33° C 45% 1020.6 hPa 23.37 mm - - -
1788270695 28.33° C 46% 1020.6 hPa 23.37 mm - - -
1788270097 28.33° C 44% 1020.9 hPa 26.92 mm - - -
1788269197 30° C 43% 1020.7 hPa 18.03 mm - - -
1788268295 29.44° C 45% 1021.1 hPa 16 mm - - -

* Rain latest hour (hover to see other rain measurements)
** Current wind speed in m/s (hover to see current wind gust speed)